createdAt,value
2023-01-27T00:01:22.977Z,14.57
2023-01-27T00:06:26.637Z,16.63
2023-01-27T00:11:52.884Z,19.10
2023-01-27T00:16:57.989Z,16.10
2023-01-27T00:22:18.792Z,13.63
2023-01-27T00:27:22.502Z,19.63
2023-01-27T00:32:45.061Z,13.53
2023-01-27T00:37:49.285Z,13.73
2023-01-27T00:42:53.043Z,20.00
2023-01-27T00:47:58.198Z,16.37
2023-01-27T00:53:02.459Z,16.37
2023-01-27T00:58:06.122Z,14.50
2023-01-27T01:03:11.221Z,18.63
2023-01-27T01:08:14.938Z,15.30
2023-01-27T01:13:19.483Z,19.57
2023-01-27T01:18:25.035Z,20.70
2023-01-27T01:23:28.823Z,17.47
2023-01-27T01:28:32.684Z,22.30
2023-01-27T01:33:38.395Z,17.67
2023-01-27T01:38:42.278Z,16.63
2023-01-27T01:43:45.987Z,20.30
2023-01-27T01:48:56.172Z,20.00
2023-01-27T01:54:04.305Z,18.60
2023-01-27T01:59:12.676Z,23.20
2023-01-27T02:04:21.433Z,19.33
2023-01-27T02:09:25.334Z,20.90
2023-01-27T02:14:29.029Z,19.50
2023-01-27T02:19:42.923Z,18.80
2023-01-27T02:24:50.470Z,18.57
2023-01-27T02:29:55.589Z,23.87
2023-01-27T02:34:59.286Z,19.33
2023-01-27T02:40:04.714Z,17.93
2023-01-27T02:45:11.552Z,17.47
2023-01-27T02:50:15.672Z,22.07
2023-01-27T02:55:19.409Z,18.87
2023-01-27T03:00:24.831Z,16.73
2023-01-27T03:05:28.697Z,24.40
2023-01-27T03:10:33.396Z,18.63
2023-01-27T03:15:56.079Z,19.90
2023-01-27T03:21:03.907Z,29.73
2023-01-27T03:26:09.130Z,19.23
2023-01-27T03:31:20.879Z,33.07
2023-01-27T03:36:50.139Z,24.07
2023-01-27T03:42:11.678Z,25.00
2023-01-27T03:47:19.172Z,22.20
2023-01-27T03:52:23.216Z,20.43
2023-01-27T03:57:26.906Z,25.53
2023-01-27T04:02:51.887Z,27.20
2023-01-27T04:07:55.561Z,23.53
2023-01-27T04:12:59.171Z,25.30
2023-01-27T04:18:04.584Z,26.23
2023-01-27T04:23:08.565Z,27.87
2023-01-27T04:28:12.524Z,28.77
2023-01-27T04:33:17.659Z,23.37
2023-01-27T04:38:21.249Z,27.47
2023-01-27T04:43:24.972Z,30.40
2023-01-27T04:48:30.129Z,29.63
2023-01-27T04:53:33.825Z,26.07
2023-01-27T04:58:37.591Z,28.43
2023-01-27T05:03:42.888Z,26.03
2023-01-27T05:08:46.653Z,30.47
2023-01-27T05:13:50.925Z,22.23
2023-01-27T05:18:56.448Z,28.70
2023-01-27T05:24:00.148Z,32.00
2023-01-27T05:29:03.871Z,28.07
2023-01-27T05:34:10.469Z,29.77
2023-01-27T05:39:14.357Z,28.20
2023-01-27T05:44:18.069Z,31.67
2023-01-27T05:49:23.380Z,29.67
2023-01-27T05:54:27.167Z,36.27
2023-01-27T05:59:31.137Z,35.70
2023-01-27T06:04:36.908Z,33.83
2023-01-27T06:09:41.631Z,34.97
2023-01-27T06:14:45.550Z,35.57
2023-01-27T06:19:50.775Z,32.77
2023-01-27T06:24:54.646Z,38.80
2023-01-27T06:29:58.411Z,44.03
2023-01-27T06:35:03.635Z,35.73
2023-01-27T06:40:08.229Z,34.40
2023-01-27T06:45:13.130Z,39.30
2023-01-27T06:50:18.257Z,43.63
2023-01-27T06:55:24.159Z,46.03
2023-01-27T07:00:28.153Z,45.63
2023-01-27T07:05:33.761Z,48.73
2023-01-27T07:10:39.208Z,41.20
2023-01-27T07:15:43.296Z,43.80
2023-01-27T07:20:48.485Z,41.13
2023-01-27T07:25:52.124Z,38.90
2023-01-27T07:30:55.842Z,49.90
2023-01-27T07:36:01.025Z,48.37
2023-01-27T07:41:06.710Z,38.20
2023-01-27T07:46:10.744Z,45.53
2023-01-27T07:51:16.915Z,46.40
2023-01-27T07:56:20.701Z,47.40
2023-01-27T08:01:24.573Z,42.13
2023-01-27T08:06:29.918Z,41.33
2023-01-27T08:11:33.637Z,55.37
2023-01-27T08:16:37.356Z,43.60
2023-01-27T08:21:42.552Z,45.40
2023-01-27T08:26:46.225Z,41.03
2023-01-27T08:31:50.058Z,43.47
2023-01-27T08:36:55.221Z,41.30
2023-01-27T08:41:58.999Z,43.57
2023-01-27T08:47:02.705Z,50.20
2023-01-27T08:52:07.793Z,42.67
2023-01-27T08:57:11.506Z,50.23
2023-01-27T09:02:15.741Z,40.77
2023-01-27T09:07:21.162Z,43.07
2023-01-27T09:12:24.999Z,39.03
2023-01-27T09:17:29.010Z,40.60
2023-01-27T09:22:34.737Z,41.73
2023-01-27T09:27:39.809Z,34.77
2023-01-27T09:32:44.305Z,41.13
2023-01-27T09:37:54.270Z,40.47
2023-01-27T09:43:21.623Z,51.60
2023-01-27T09:48:56.095Z,37.80
2023-01-27T09:54:20.122Z,40.93
2023-01-27T09:59:36.110Z,39.47
2023-01-27T10:05:06.726Z,46.37
2023-01-27T10:10:26.502Z,42.90
2023-01-27T10:15:45.239Z,46.43
2023-01-27T10:20:55.769Z,48.07
2023-01-27T10:26:10.197Z,47.83
2023-01-27T10:31:20.647Z,48.80
2023-01-27T10:36:30.427Z,48.97
2023-01-27T10:41:43.687Z,44.87
2023-01-27T10:46:55.737Z,48.80
2023-01-27T10:52:05.214Z,41.27
2023-01-27T10:57:15.739Z,47.87
2023-01-27T11:02:25.754Z,45.67
2023-01-27T11:07:31.263Z,53.47
2023-01-27T11:12:39.131Z,41.83
2023-01-27T11:17:48.316Z,54.90
2023-01-27T11:22:58.810Z,42.40
2023-01-27T11:28:14.596Z,42.27
2023-01-27T11:33:24.684Z,45.13
2023-01-27T11:38:28.424Z,50.83
2023-01-27T11:43:35.063Z,52.67
2023-01-27T11:48:43.366Z,49.87
2023-01-27T11:53:50.999Z,52.77
2023-01-27T11:59:01.555Z,54.50
2023-01-27T12:04:08.507Z,62.63
2023-01-27T12:09:31.946Z,51.80
2023-01-27T12:14:37.151Z,51.47
2023-01-27T12:19:43.895Z,49.73
2023-01-27T12:24:51.538Z,63.17
2023-01-27T12:29:59.571Z,59.00
2023-01-27T12:35:05.188Z,66.47
2023-01-27T12:40:26.910Z,66.27
2023-01-27T12:45:35.188Z,59.37
2023-01-27T12:50:40.616Z,60.30
2023-01-27T12:55:48.398Z,62.87
2023-01-27T13:00:53.961Z,61.30
2023-01-27T13:05:59.796Z,58.97
2023-01-27T13:11:05.241Z,61.70
2023-01-27T13:16:19.403Z,70.67
2023-01-27T13:21:26.942Z,58.73
2023-01-27T13:26:33.784Z,58.03
2023-01-27T13:31:45.663Z,63.63
2023-01-27T13:36:55.360Z,67.23
2023-01-27T13:42:10.920Z,59.63
2023-01-27T13:47:20.540Z,57.90
2023-01-27T13:52:25.665Z,53.60
2023-01-27T13:58:00.531Z,50.53
2023-01-27T14:03:32.310Z,51.73
2023-01-27T14:08:51.592Z,50.07
2023-01-27T14:14:10.816Z,51.30
2023-01-27T14:19:32.503Z,62.63
2023-01-27T14:24:44.402Z,60.63
2023-01-27T14:29:55.124Z,62.53
2023-01-27T14:35:18.111Z,61.53
2023-01-27T14:40:26.326Z,51.07
2023-01-27T14:45:34.384Z,62.30
2023-01-27T14:50:47.990Z,61.10
2023-01-27T14:56:01.445Z,59.60
2023-01-27T15:01:17.334Z,60.70
2023-01-27T15:06:32.167Z,46.40
2023-01-27T15:11:58.964Z,58.60
2023-01-27T15:17:19.190Z,54.83
2023-01-27T15:22:59.304Z,55.53
2023-01-27T15:28:04.793Z,52.27
2023-01-27T15:33:41.876Z,57.33
2023-01-27T15:39:03.605Z,53.40
2023-01-27T15:44:18.008Z,51.60
2023-01-27T15:49:24.684Z,70.33
2023-01-27T15:54:34.658Z,59.87
2023-01-27T15:59:58.359Z,81.17
2023-01-27T16:05:09.899Z,68.63
2023-01-27T16:10:21.107Z,66.63
2023-01-27T16:15:34.197Z,59.03
2023-01-27T16:20:44.695Z,68.20
2023-01-27T16:26:02.255Z,76.33
2023-01-27T16:31:15.430Z,74.93
2023-01-27T16:36:27.000Z,54.90
2023-01-27T16:41:37.986Z,50.73
2023-01-27T16:46:47.029Z,75.03
2023-01-27T16:51:56.636Z,79.97
2023-01-27T16:57:05.098Z,66.17
2023-01-27T17:02:19.088Z,50.43
2023-01-27T17:07:23.385Z,68.90
2023-01-27T17:12:34.404Z,65.50
2023-01-27T17:17:41.040Z,61.97
2023-01-27T17:22:45.459Z,54.43
2023-01-27T17:27:52.262Z,47.17
2023-01-27T17:32:59.875Z,47.93
2023-01-27T17:38:14.948Z,58.73
2023-01-27T17:43:32.102Z,56.83
2023-01-27T17:48:42.343Z,49.33
2023-01-27T17:53:46.618Z,50.57
2023-01-27T17:58:59.931Z,48.70
2023-01-27T18:04:06.414Z,49.90
2023-01-27T18:09:19.126Z,56.93
2023-01-27T18:14:24.740Z,55.00
2023-01-27T18:19:28.955Z,65.13
2023-01-27T18:24:39.115Z,61.27
2023-01-27T18:29:45.275Z,58.00
2023-01-27T18:34:50.702Z,49.63
2023-01-27T18:39:55.390Z,54.57
2023-01-27T18:45:00.804Z,53.47
2023-01-27T18:50:20.625Z,61.53
2023-01-27T18:55:27.027Z,69.10
2023-01-27T19:00:40.543Z,49.10
2023-01-27T19:05:47.237Z,18.27
2023-01-27T19:10:51.601Z,11.20
2023-01-27T19:15:58.388Z,9.73
2023-01-27T19:21:02.771Z,5.50
2023-01-27T19:26:12.334Z,5.57
2023-01-27T19:31:17.779Z,3.27
2023-01-27T19:36:26.152Z,2.73
2023-01-27T19:41:30.307Z,3.27
2023-01-27T19:46:38.987Z,3.30
2023-01-27T19:51:42.931Z,2.57
2023-01-27T19:56:49.277Z,3.57
2023-01-27T20:01:56.831Z,4.10
2023-01-27T20:07:00.855Z,8.90
2023-01-27T20:12:05.050Z,4.07
2023-01-27T20:17:10.764Z,4.80
2023-01-27T20:22:14.900Z,5.10
2023-01-27T20:27:19.173Z,5.87
2023-01-27T20:32:25.839Z,5.93
2023-01-27T20:37:31.900Z,6.77
2023-01-27T20:42:35.815Z,4.13
2023-01-27T20:47:41.282Z,6.13
2023-01-27T20:52:45.541Z,7.07
2023-01-27T20:57:52.263Z,7.27
2023-01-27T21:02:58.296Z,6.67
2023-01-27T21:08:02.663Z,7.00
2023-01-27T21:13:06.380Z,6.00
2023-01-27T21:18:11.681Z,6.73
2023-01-27T21:23:15.664Z,6.77
2023-01-27T21:28:20.402Z,6.87
2023-01-27T21:33:25.498Z,9.20
2023-01-27T21:38:29.260Z,8.97
2023-01-27T21:43:50.214Z,7.37
2023-01-27T21:48:55.349Z,8.17
2023-01-27T21:53:59.022Z,8.17
2023-01-27T21:59:02.741Z,9.03
2023-01-27T22:04:08.024Z,11.23
2023-01-27T22:09:11.561Z,8.73
2023-01-27T22:14:15.148Z,8.77
2023-01-27T22:19:20.349Z,9.27
2023-01-27T22:24:24.660Z,11.03
2023-01-27T22:29:28.365Z,11.87
2023-01-27T22:34:33.775Z,11.97
2023-01-27T22:39:38.376Z,10.83
2023-01-27T22:44:41.894Z,7.37
2023-01-27T22:49:47.043Z,5.87
2023-01-27T22:54:50.686Z,5.30
2023-01-27T22:59:54.448Z,4.47
2023-01-27T23:05:00.394Z,6.07
2023-01-27T23:10:04.162Z,7.97
2023-01-27T23:15:09.256Z,8.07
2023-01-27T23:20:15.352Z,9.17
2023-01-27T23:25:19.306Z,7.50
2023-01-27T23:30:23.500Z,6.03
2023-01-27T23:35:28.745Z,5.13
2023-01-27T23:40:33.922Z,4.73
2023-01-27T23:45:37.678Z,5.50
2023-01-27T23:50:42.858Z,8.40
2023-01-27T23:55:46.603Z,5.63
